createdAt,value
2023-05-09T00:02:24.951Z,101548.66
2023-05-09T00:04:53.252Z,101546.50
2023-05-09T00:07:21.774Z,101547.50
2023-05-09T00:09:50.062Z,101552.22
2023-05-09T00:12:18.286Z,101545.75
2023-05-09T00:14:46.924Z,101556.91
2023-05-09T00:17:16.602Z,101552.84
2023-05-09T00:19:45.376Z,101545.91
2023-05-09T00:22:13.802Z,101549.75
2023-05-09T00:24:42.201Z,101550.34
2023-05-09T00:27:11.154Z,101548.00
2023-05-09T00:29:39.373Z,101541.03
2023-05-09T00:32:07.712Z,101543.84
2023-05-09T00:34:36.107Z,101558.47
2023-05-09T00:37:04.319Z,101544.81
2023-05-09T00:39:32.571Z,101547.03
2023-05-09T00:42:00.781Z,101544.38
2023-05-09T00:44:29.007Z,101550.47
2023-05-09T00:46:57.350Z,101548.94
2023-05-09T00:49:25.601Z,101554.50
2023-05-09T00:51:55.622Z,101554.72
2023-05-09T00:54:23.956Z,101547.03
2023-05-09T00:56:52.876Z,101547.94
2023-05-09T00:59:21.775Z,101552.59
2023-05-09T01:01:50.106Z,101539.31
2023-05-09T01:04:18.402Z,101553.75
2023-05-09T01:07:29.216Z,101540.78
2023-05-09T01:10:15.582Z,101548.00
2023-05-09T01:12:55.787Z,101552.63
2023-05-09T01:16:02.473Z,101549.53
2023-05-09T01:19:03.310Z,101553.34
2023-05-09T01:21:34.273Z,101550.84
2023-05-09T01:24:05.631Z,101538.72
2023-05-09T01:26:43.952Z,101549.63
2023-05-09T01:29:18.584Z,101559.75
2023-05-09T01:31:50.219Z,101553.03
2023-05-09T01:34:20.050Z,101553.28
2023-05-09T01:36:51.239Z,101561.56
2023-05-09T01:39:20.784Z,101560.25
2023-05-09T01:41:50.540Z,101552.41
2023-05-09T01:44:19.709Z,101560.47
2023-05-09T01:46:48.891Z,101569.31
2023-05-09T01:49:19.488Z,101567.69
2023-05-09T01:51:50.258Z,101570.53
2023-05-09T01:54:19.846Z,101561.56
2023-05-09T01:56:48.866Z,101569.69
2023-05-09T01:59:18.437Z,101569.06
2023-05-09T02:01:48.358Z,101560.38
2023-05-09T02:04:19.064Z,101568.56
2023-05-09T02:06:53.468Z,101561.41
2023-05-09T02:09:22.411Z,101558.75
2023-05-09T02:11:50.894Z,101565.00
2023-05-09T02:14:19.131Z,101575.03
2023-05-09T02:16:47.432Z,101573.44
2023-05-09T02:19:15.642Z,101569.84
2023-05-09T02:21:44.039Z,101572.38
2023-05-09T02:24:12.516Z,101574.94
2023-05-09T02:26:42.431Z,101573.31
2023-05-09T02:29:13.130Z,101572.59
2023-05-09T02:31:43.702Z,101570.25
2023-05-09T02:34:13.233Z,101580.25
2023-05-09T02:36:41.956Z,101585.75
2023-05-09T02:39:10.574Z,101575.31
2023-05-09T02:41:38.816Z,101579.94
2023-05-09T02:44:07.039Z,101578.28
2023-05-09T02:46:35.468Z,101597.03
2023-05-09T02:49:03.724Z,101592.81
2023-05-09T02:51:32.000Z,101598.31
2023-05-09T02:54:00.172Z,101602.81
2023-05-09T02:56:28.391Z,101602.84
2023-05-09T02:58:57.015Z,101605.53
2023-05-09T03:01:25.264Z,101606.44
2023-05-09T03:03:53.656Z,101605.69
2023-05-09T03:06:21.856Z,101613.03
2023-05-09T03:08:50.054Z,101613.13
2023-05-09T03:11:18.247Z,101614.97
2023-05-09T03:13:46.721Z,101623.03
2023-05-09T03:16:16.552Z,101616.88
2023-05-09T03:18:44.841Z,101632.88
2023-05-09T03:21:13.626Z,101627.59
2023-05-09T03:23:41.883Z,101625.75
2023-05-09T03:26:10.081Z,101635.59
2023-05-09T03:28:39.091Z,101634.88
2023-05-09T03:31:07.400Z,101627.81
2023-05-09T03:33:35.655Z,101634.03
2023-05-09T03:36:03.858Z,101630.34
2023-05-09T03:38:32.284Z,101632.16
2023-05-09T03:41:00.513Z,101639.34
2023-05-09T03:43:28.732Z,101636.84
2023-05-09T03:45:56.992Z,101641.31
2023-05-09T03:48:25.213Z,101643.25
2023-05-09T03:50:53.446Z,101639.72
2023-05-09T03:53:21.689Z,101643.47
2023-05-09T03:55:50.041Z,101641.88
2023-05-09T03:58:20.182Z,101652.56
2023-05-09T04:00:48.970Z,101656.28
2023-05-09T04:03:17.363Z,101653.69
2023-05-09T04:05:45.670Z,101647.50
2023-05-09T04:08:13.940Z,101650.22
2023-05-09T04:10:42.184Z,101657.38
2023-05-09T04:13:10.432Z,101649.44
2023-05-09T04:15:38.707Z,101659.31
2023-05-09T04:18:07.458Z,101658.53
2023-05-09T04:20:35.859Z,101656.09
2023-05-09T04:23:04.058Z,101664.19
2023-05-09T04:25:32.504Z,101667.78
2023-05-09T04:28:00.710Z,101655.47
2023-05-09T04:30:28.907Z,101648.38
2023-05-09T04:32:57.164Z,101652.06
2023-05-09T04:35:25.367Z,101651.31
2023-05-09T04:37:53.780Z,101660.31
2023-05-09T04:40:22.026Z,101656.91
2023-05-09T04:42:50.638Z,101666.72
2023-05-09T04:45:18.931Z,101672.06
2023-05-09T04:47:47.330Z,101666.78
2023-05-09T04:50:15.607Z,101669.38
2023-05-09T04:52:43.814Z,101664.84
2023-05-09T04:55:12.162Z,101677.22
2023-05-09T04:57:40.659Z,101670.28
2023-05-09T05:00:12.199Z,101675.69
2023-05-09T05:02:40.435Z,101670.41
2023-05-09T05:05:11.969Z,101680.19
2023-05-09T05:07:40.913Z,101678.53
2023-05-09T05:10:09.636Z,101676.09
2023-05-09T05:12:37.888Z,101683.28
2023-05-09T05:15:06.687Z,101685.09
2023-05-09T05:17:34.914Z,101678.16
2023-05-09T05:20:03.996Z,101687.00
2023-05-09T05:22:32.858Z,101684.34
2023-05-09T05:25:01.227Z,101684.47
2023-05-09T05:27:29.465Z,101686.25
2023-05-09T05:29:57.924Z,101687.94
2023-05-09T05:32:26.219Z,101688.81
2023-05-09T05:34:54.393Z,101684.34
2023-05-09T05:37:22.627Z,101673.75
2023-05-09T05:39:52.437Z,101672.88
2023-05-09T05:42:20.637Z,101670.28
2023-05-09T05:44:49.167Z,101670.34
2023-05-09T05:47:17.381Z,101671.28
2023-05-09T05:49:46.246Z,101666.03
2023-05-09T05:52:15.067Z,101662.66
2023-05-09T05:54:43.304Z,101660.81
2023-05-09T05:57:11.716Z,101656.41
2023-05-09T05:59:39.912Z,101658.25
2023-05-09T06:02:08.160Z,101649.59
2023-05-09T06:04:36.409Z,101649.66
2023-05-09T06:07:04.757Z,101644.44
2023-05-09T06:09:32.922Z,101640.94
2023-05-09T06:12:01.096Z,101640.13
2023-05-09T06:14:29.284Z,101630.47
2023-05-09T06:16:57.723Z,101638.50
2023-05-09T06:19:26.344Z,101639.50
2023-05-09T06:21:54.513Z,101636.88
2023-05-09T06:24:34.567Z,101631.56
2023-05-09T06:27:03.889Z,101628.09
2023-05-09T06:29:32.085Z,101621.03
2023-05-09T06:32:00.466Z,101622.03
2023-05-09T06:34:28.717Z,101625.69
2023-05-09T06:36:56.931Z,101636.44
2023-05-09T06:39:25.123Z,101633.88
2023-05-09T06:41:53.334Z,101630.44
2023-05-09T06:44:21.587Z,101617.25
2023-05-09T06:46:50.400Z,101624.50
2023-05-09T06:49:18.665Z,101621.84
2023-05-09T06:51:47.168Z,101620.16
2023-05-09T06:54:15.403Z,101624.50
2023-05-09T06:56:43.707Z,101625.34
2023-05-09T06:59:17.166Z,101626.25
2023-05-09T07:01:45.372Z,101621.06
2023-05-09T07:04:13.678Z,101621.19
2023-05-09T07:06:41.885Z,101626.59
2023-05-09T07:09:10.666Z,101632.75
2023-05-09T07:11:38.952Z,101635.34
2023-05-09T07:14:07.136Z,101631.81
2023-05-09T07:16:37.400Z,101620.31
2023-05-09T07:19:06.116Z,101619.56
2023-05-09T07:21:35.237Z,101624.09
2023-05-09T07:24:03.404Z,101616.16
2023-05-09T07:26:31.919Z,101619.69
2023-05-09T07:29:00.288Z,101621.59
2023-05-09T07:31:28.619Z,101615.41
2023-05-09T07:33:56.861Z,101626.97
2023-05-09T07:36:25.157Z,101621.78
2023-05-09T07:38:54.322Z,101624.44
2023-05-09T07:41:23.311Z,101617.44
2023-05-09T07:43:51.588Z,101619.19
2023-05-09T07:46:19.922Z,101619.25
2023-05-09T07:48:48.560Z,101621.97
2023-05-09T07:51:16.999Z,101615.78
2023-05-09T07:53:45.177Z,101618.47
2023-05-09T07:56:14.247Z,101613.22
2023-05-09T07:58:42.481Z,101608.81
2023-05-09T08:01:11.046Z,101612.44
2023-05-09T08:03:39.334Z,101608.88
2023-05-09T08:06:07.781Z,101597.31
2023-05-09T08:08:37.708Z,101598.25
2023-05-09T08:11:07.180Z,101598.28
2023-05-09T08:13:35.392Z,101582.41
2023-05-09T08:16:03.783Z,101590.47
2023-05-09T08:18:32.017Z,101594.88
2023-05-09T08:21:00.515Z,101588.75
2023-05-09T08:23:28.813Z,101594.09
2023-05-09T08:25:57.635Z,101595.88
2023-05-09T08:28:25.803Z,101592.31
2023-05-09T08:30:54.081Z,101602.94
2023-05-09T08:33:22.292Z,101599.38
2023-05-09T08:35:54.378Z,101604.63
2023-05-09T08:38:22.625Z,101601.13
2023-05-09T08:40:50.939Z,101597.63
2023-05-09T08:43:21.067Z,101589.69
2023-05-09T08:45:55.443Z,101595.03
2023-05-09T08:48:24.341Z,101600.38
2023-05-09T08:50:53.185Z,101590.78
2023-05-09T08:53:22.964Z,101589.91
2023-05-09T08:55:54.650Z,101586.47
2023-05-09T08:58:23.465Z,101593.63
2023-05-09T09:00:51.749Z,101581.38
2023-05-09T09:03:20.165Z,101582.34
2023-05-09T09:05:50.490Z,101578.00
2023-05-09T09:08:19.694Z,101575.38
2023-05-09T09:10:48.510Z,101572.81
2023-05-09T09:13:18.545Z,101568.47
2023-05-09T09:15:48.480Z,101565.91
2023-05-09T09:18:29.377Z,101563.38
2023-05-09T09:21:13.397Z,101565.19
2023-05-09T09:23:44.150Z,101554.72
2023-05-09T09:26:12.433Z,101553.06
2023-05-09T09:28:41.036Z,101557.47
2023-05-09T09:31:26.476Z,101557.47
2023-05-09T09:34:02.040Z,101554.91
2023-05-09T09:36:33.210Z,101556.69
2023-05-09T09:39:03.245Z,101558.47
2023-05-09T09:41:35.950Z,101555.81
2023-05-09T09:44:12.410Z,101556.75
2023-05-09T09:46:49.345Z,101557.78
2023-05-09T09:49:22.712Z,101556.13
2023-05-09T09:51:59.068Z,101558.00
2023-05-09T09:54:30.397Z,101553.72
2023-05-09T09:56:58.574Z,101549.44
2023-05-09T09:59:28.240Z,101558.38
2023-05-09T10:02:07.562Z,101556.66
2023-05-09T10:04:38.327Z,101552.31
2023-05-09T10:07:08.334Z,101545.28
2023-05-09T10:09:38.835Z,101553.25
2023-05-09T10:12:09.068Z,101558.63
2023-05-09T10:14:39.640Z,101560.44
2023-05-09T10:17:08.276Z,101556.91
2023-05-09T10:19:39.113Z,101559.59
2023-05-09T10:22:12.706Z,101563.19
2023-05-09T10:24:58.086Z,101561.47
2023-05-09T10:27:30.363Z,101567.66
2023-05-09T10:30:23.407Z,101566.84
2023-05-09T10:33:13.220Z,101566.00
2023-05-09T10:35:49.181Z,101565.22
2023-05-09T10:38:18.244Z,101559.06
2023-05-09T10:40:49.041Z,101558.25
2023-05-09T10:43:17.552Z,101557.44
2023-05-09T10:45:46.109Z,101557.47
2023-05-09T10:48:15.284Z,101563.66
2023-05-09T10:50:44.440Z,101564.53
2023-05-09T10:53:14.903Z,101557.47
2023-05-09T10:55:48.858Z,101560.19
2023-05-09T10:58:28.745Z,101557.56
2023-05-09T11:00:59.344Z,101554.03
2023-05-09T11:03:29.424Z,101556.72
2023-05-09T11:05:59.153Z,101549.69
2023-05-09T11:08:29.142Z,101552.31
2023-05-09T11:11:01.339Z,101544.38
2023-05-09T11:13:33.081Z,101540.81
2023-05-09T11:16:03.915Z,101539.09
2023-05-09T11:18:33.642Z,101549.72
2023-05-09T11:21:10.421Z,101547.03
2023-05-09T11:23:40.129Z,101540.00
2023-05-09T11:26:10.273Z,101547.97
2023-05-09T11:28:40.065Z,101545.31
2023-05-09T11:31:18.231Z,101552.41
2023-05-09T11:33:49.979Z,101554.25
2023-05-09T11:36:32.585Z,101548.09
2023-05-09T11:39:11.630Z,101556.97
2023-05-09T11:41:48.746Z,101552.59
2023-05-09T11:44:19.134Z,101550.84
2023-05-09T11:46:48.942Z,101545.59
2023-05-09T11:49:17.964Z,101562.41
2023-05-09T11:51:46.319Z,101548.31
2023-05-09T11:54:15.691Z,101546.56
2023-05-09T11:56:44.128Z,101548.38
2023-05-09T11:59:15.375Z,101546.63
2023-05-09T12:01:43.692Z,101544.88
2023-05-09T12:04:12.040Z,101548.41
2023-05-09T12:06:40.476Z,101542.25
2023-05-09T12:09:11.118Z,101545.75
2023-05-09T12:11:39.341Z,101549.28
2023-05-09T12:14:07.485Z,101541.34
2023-05-09T12:16:35.842Z,101544.78
2023-05-09T12:19:05.903Z,101539.50
2023-05-09T12:21:34.446Z,101538.59
2023-05-09T12:24:02.995Z,101534.16
2023-05-09T12:26:31.901Z,101532.38
2023-05-09T12:29:00.419Z,101525.34
2023-05-09T12:31:29.462Z,101520.09
2023-05-09T12:33:57.798Z,101526.31
2023-05-09T12:36:26.820Z,101526.34
2023-05-09T12:38:56.218Z,101529.03
2023-05-09T12:43:56.907Z,101519.38
2023-05-09T12:46:25.297Z,101518.50
2023-05-09T12:48:53.647Z,101526.47
2023-05-09T12:51:22.800Z,101529.13
2023-05-09T12:53:51.207Z,101514.13
2023-05-09T12:56:21.120Z,101514.16
2023-05-09T12:58:55.042Z,101515.09
2023-05-09T13:01:28.304Z,101523.03
2023-05-09T13:04:08.819Z,101525.69
2023-05-09T13:06:50.767Z,101523.03
2023-05-09T13:09:19.870Z,101526.59
2023-05-09T13:11:48.650Z,101527.53
2023-05-09T13:14:16.963Z,101534.63
2023-05-09T13:16:45.817Z,101535.53
2023-05-09T13:19:14.302Z,101532.88
2023-05-09T13:21:42.634Z,101533.72
2023-05-09T13:24:10.837Z,101529.25
2023-05-09T13:26:39.029Z,101531.00
2023-05-09T13:29:07.283Z,101530.97
2023-05-09T13:31:35.580Z,101536.22
2023-05-09T13:34:03.756Z,101533.56
2023-05-09T13:36:33.384Z,101532.66
2023-05-09T13:39:01.661Z,101532.63
2023-05-09T13:41:32.647Z,101544.09
2023-05-09T13:44:00.900Z,101531.72
2023-05-09T13:46:29.277Z,101540.47
2023-05-09T13:48:57.633Z,101543.13
2023-05-09T13:51:25.962Z,101539.56
2023-05-09T13:53:54.149Z,101541.28
2023-05-09T13:56:22.348Z,101542.13
2023-05-09T13:58:50.640Z,101537.63
2023-05-09T14:01:19.229Z,101547.19
2023-05-09T14:03:49.916Z,101544.44
2023-05-09T14:06:18.251Z,101551.47
2023-05-09T14:08:47.080Z,101543.44
2023-05-09T14:11:15.340Z,101549.53
2023-05-09T14:13:43.523Z,101547.72
2023-05-09T14:16:11.782Z,101541.41
2023-05-09T14:18:40.074Z,101562.44
2023-05-09T14:21:08.467Z,101561.34
2023-05-09T14:23:36.786Z,101555.06
2023-05-09T14:26:05.035Z,101563.72
2023-05-09T14:28:33.510Z,101564.47
2023-05-09T14:31:02.213Z,101559.88
2023-05-09T14:33:30.492Z,101561.53
2023-05-09T14:35:58.762Z,101565.81
2023-05-09T14:38:27.029Z,101571.81
2023-05-09T14:40:55.331Z,101568.13
2023-05-09T14:43:23.608Z,101566.16
2023-05-09T14:45:52.669Z,101570.41
2023-05-09T14:48:21.218Z,101568.47
2023-05-09T14:50:50.563Z,101563.94
2023-05-09T14:53:18.836Z,101567.38
2023-05-09T14:55:47.175Z,101559.38
2023-05-09T14:58:16.916Z,101559.38
2023-05-09T15:00:46.304Z,101562.78
2023-05-09T15:03:14.708Z,101566.16
2023-05-09T15:05:43.209Z,101568.66
2023-05-09T15:08:11.569Z,101557.94
2023-05-09T15:10:39.810Z,101558.59
2023-05-09T15:13:08.075Z,101551.28
2023-05-09T15:15:39.160Z,101550.16
2023-05-09T15:18:11.017Z,101542.81
2023-05-09T15:20:39.390Z,101543.47
2023-05-09T15:23:08.642Z,101533.47
2023-05-09T15:25:37.176Z,101536.72
2023-05-09T15:28:05.473Z,101532.78
2023-05-09T15:30:35.258Z,101528.88
2023-05-09T15:33:04.468Z,101526.81
2023-05-09T15:35:32.707Z,101530.28
2023-05-09T15:38:01.890Z,101529.34
2023-05-09T15:40:30.158Z,101532.75
2023-05-09T15:42:59.295Z,101533.44
2023-05-09T15:45:27.549Z,101525.22
2023-05-09T15:47:55.849Z,101524.91
2023-05-09T15:50:24.106Z,101520.19
2023-05-09T15:52:53.292Z,101525.50
2023-05-09T15:55:21.830Z,101525.38
2023-05-09T15:57:50.123Z,101530.72
2023-05-09T16:00:18.665Z,101524.31
2023-05-09T16:02:47.283Z,101518.81
2023-05-09T16:05:15.641Z,101528.47
2023-05-09T16:07:47.095Z,101524.03
2023-05-09T16:10:15.819Z,101518.56
2023-05-09T16:12:44.440Z,101518.47
2023-05-09T16:15:13.333Z,101511.19
2023-05-09T16:17:42.051Z,101521.56
2023-05-09T16:20:14.477Z,101519.34
2023-05-09T16:22:43.318Z,101511.91
2023-05-09T16:25:12.343Z,101504.31
2023-05-09T16:27:40.581Z,101491.31
2023-05-09T16:30:09.548Z,101489.28
2023-05-09T16:32:37.914Z,101492.56
2023-05-09T16:35:06.766Z,101495.84
2023-05-09T16:37:35.716Z,101487.84
2023-05-09T16:40:05.227Z,101488.66
2023-05-09T16:42:33.840Z,101493.66
2023-05-09T16:45:02.079Z,101490.84
2023-05-09T16:47:30.341Z,101486.19
2023-05-09T16:49:58.625Z,101489.44
2023-05-09T16:52:27.650Z,101488.88
2023-05-09T16:54:55.853Z,101488.88
2023-05-09T16:57:24.047Z,101486.38
2023-05-09T16:59:52.432Z,101484.44
2023-05-09T17:02:20.770Z,101483.59
2023-05-09T17:04:49.606Z,101482.97
2023-05-09T17:07:18.013Z,101493.06
2023-05-09T17:09:46.400Z,101490.50
2023-05-09T17:12:18.567Z,101489.75
2023-05-09T17:14:48.481Z,101489.94
2023-05-09T17:17:18.490Z,101490.03
2023-05-09T17:19:47.126Z,101492.78
2023-05-09T17:22:15.338Z,101490.28
2023-05-09T17:24:43.530Z,101488.00
2023-05-09T17:27:12.272Z,101478.41
2023-05-09T17:29:40.452Z,101485.41
2023-05-09T17:32:08.664Z,101490.22
2023-05-09T17:34:36.855Z,101493.31
2023-05-09T17:37:06.590Z,101494.78
2023-05-09T17:39:34.871Z,101481.78
2023-05-09T17:42:03.289Z,101486.75
2023-05-09T17:44:31.768Z,101476.69
2023-05-09T17:47:00.054Z,101476.97
2023-05-09T17:49:29.470Z,101471.19
2023-05-09T17:51:57.765Z,101480.75
2023-05-09T17:54:26.073Z,101482.94
2023-05-09T17:56:59.815Z,101487.91
2023-05-09T17:59:29.001Z,101479.09
2023-05-09T18:01:57.379Z,101475.00
2023-05-09T18:04:26.649Z,101468.09
2023-05-09T18:06:55.063Z,101476.75
2023-05-09T18:09:23.550Z,101474.19
2023-05-09T18:11:51.805Z,101471.06
2023-05-09T18:14:20.156Z,101469.72
2023-05-09T18:16:48.719Z,101470.03
2023-05-09T18:19:16.934Z,101467.69
2023-05-09T18:21:45.123Z,101470.75
2023-05-09T18:24:14.909Z,101461.28
2023-05-09T18:26:44.582Z,101458.13
2023-05-09T18:29:13.052Z,101460.56
2023-05-09T18:31:42.322Z,101457.16
2023-05-09T18:34:10.565Z,101463.59
2023-05-09T18:36:38.871Z,101452.88
2023-05-09T18:39:07.105Z,101461.88
2023-05-09T18:41:35.378Z,101453.91
2023-05-09T18:44:03.654Z,101446.50
2023-05-09T18:46:34.329Z,101446.28
2023-05-09T18:49:04.586Z,101440.13
2023-05-09T18:51:33.099Z,101430.25
2023-05-09T18:54:01.319Z,101444.38
2023-05-09T18:56:29.552Z,101436.88
2023-05-09T18:59:02.203Z,101437.91
2023-05-09T19:01:30.527Z,101434.34
2023-05-09T19:03:59.162Z,101429.69
2023-05-09T19:06:27.861Z,101426.56
2023-05-09T19:08:56.309Z,101434.03
2023-05-09T19:11:24.613Z,101430.50
2023-05-09T19:13:53.724Z,101428.28
2023-05-09T19:16:23.317Z,101430.41
2023-05-09T19:18:52.192Z,101431.31
2023-05-09T19:21:20.460Z,101431.31
2023-05-09T19:23:50.069Z,101427.38
2023-05-09T19:26:20.677Z,101416.75
2023-05-09T19:28:49.298Z,101413.22
2023-05-09T19:31:19.704Z,101417.03
2023-05-09T19:33:48.903Z,101423.56
2023-05-09T19:36:18.642Z,101414.66
2023-05-09T19:38:47.133Z,101403.22
2023-05-09T19:41:15.373Z,101396.50
2023-05-09T19:43:43.815Z,101403.88
2023-05-09T19:46:12.110Z,101401.72
2023-05-09T19:48:40.352Z,101398.06
2023-05-09T19:51:09.737Z,101404.03
2023-05-09T19:53:37.965Z,101401.69
2023-05-09T19:56:08.756Z,101397.75
2023-05-09T19:58:37.249Z,101400.59
2023-05-09T20:01:08.664Z,101394.03
2023-05-09T20:03:37.820Z,101387.03
2023-05-09T20:06:06.630Z,101387.56
2023-05-09T20:08:34.933Z,101389.47
2023-05-09T20:11:04.055Z,101384.69
2023-05-09T20:13:32.239Z,101389.25
2023-05-09T20:16:01.103Z,101386.19
2023-05-09T20:18:29.421Z,101375.84
2023-05-09T20:20:57.673Z,101375.63
2023-05-09T20:23:25.903Z,101377.69
2023-05-09T20:25:54.169Z,101379.81
2023-05-09T20:28:23.317Z,101367.84
2023-05-09T20:30:51.571Z,101369.22
2023-05-09T20:33:19.894Z,101377.75
2023-05-09T20:35:50.078Z,101356.78
2023-05-09T20:38:18.320Z,101359.06
2023-05-09T20:40:46.928Z,101366.00
2023-05-09T20:43:15.116Z,101357.75
2023-05-09T20:45:43.931Z,101361.41
2023-05-09T20:48:12.696Z,101358.31
2023-05-09T20:50:40.891Z,101358.13
2023-05-09T20:53:09.088Z,101355.19
2023-05-09T20:55:37.340Z,101352.47
2023-05-09T20:58:05.527Z,101346.41
2023-05-09T21:00:33.884Z,101357.06
2023-05-09T21:03:02.403Z,101345.06
2023-05-09T21:05:30.728Z,101363.25
2023-05-09T21:07:59.017Z,101352.84
2023-05-09T21:10:27.379Z,101348.78
2023-05-09T21:12:55.621Z,101348.50
2023-05-09T21:15:23.837Z,101343.81
2023-05-09T21:17:52.137Z,101343.38
2023-05-09T21:20:20.486Z,101341.31
2023-05-09T21:22:49.172Z,101342.41
2023-05-09T21:25:18.322Z,101334.72
2023-05-09T21:27:47.195Z,101338.38
2023-05-09T21:30:15.965Z,101336.19
2023-05-09T21:32:44.319Z,101322.94
2023-05-09T21:35:13.910Z,101328.69
2023-05-09T21:37:42.229Z,101330.09
2023-05-09T21:40:10.974Z,101337.88
2023-05-09T21:42:41.565Z,101325.72
2023-05-09T21:45:10.090Z,101322.63
2023-05-09T21:47:40.627Z,101325.66
2023-05-09T21:50:09.593Z,101326.00
2023-05-09T21:52:37.846Z,101311.81
2023-05-09T21:55:06.538Z,101321.78
2023-05-09T21:57:34.815Z,101323.53
2023-05-09T22:00:05.952Z,101317.97
2023-05-09T22:02:34.990Z,101318.84
2023-05-09T22:05:03.507Z,101318.53
2023-05-09T22:07:31.745Z,101318.53
2023-05-09T22:10:04.436Z,101314.41
2023-05-09T22:12:32.738Z,101313.59
2023-05-09T22:15:01.025Z,101301.94
2023-05-09T22:17:29.280Z,101305.56
2023-05-09T22:19:57.604Z,101299.06
2023-05-09T22:22:25.811Z,101292.72
2023-05-09T22:24:54.440Z,101303.41
2023-05-09T22:27:22.821Z,101293.38
2023-05-09T22:29:51.135Z,101296.59
2023-05-09T22:32:19.329Z,101280.03
2023-05-09T22:34:50.685Z,101291.00
2023-05-09T22:37:18.909Z,101292.88
2023-05-09T22:39:47.115Z,101290.44
2023-05-09T22:42:15.415Z,101293.91
2023-05-09T22:44:44.091Z,101291.16
2023-05-09T22:47:12.346Z,101292.31
2023-05-09T22:49:40.546Z,101285.19
2023-05-09T22:52:08.741Z,101289.94
2023-05-09T22:54:37.128Z,101282.91
2023-05-09T22:57:05.438Z,101282.53
2023-05-09T22:59:34.169Z,101286.09
2023-05-09T23:02:02.478Z,101281.41
2023-05-09T23:04:30.759Z,101287.94
2023-05-09T23:06:59.030Z,101281.28
2023-05-09T23:09:27.232Z,101286.25
2023-05-09T23:11:56.030Z,101286.06
2023-05-09T23:14:24.264Z,101283.88
2023-05-09T23:16:52.444Z,101283.47
2023-05-09T23:19:20.907Z,101286.72
2023-05-09T23:21:49.518Z,101290.56
2023-05-09T23:24:17.802Z,101278.91
2023-05-09T23:26:49.069Z,101286.84
2023-05-09T23:29:17.298Z,101282.19
2023-05-09T23:31:45.625Z,101280.31
2023-05-09T23:34:13.943Z,101281.81
2023-05-09T23:36:42.145Z,101278.41
2023-05-09T23:39:10.394Z,101275.56
2023-05-09T23:44:08.467Z,101281.03
2023-05-09T23:46:36.798Z,101282.16
2023-05-09T23:49:05.377Z,101299.78
2023-05-09T23:51:33.719Z,101289.47
2023-05-09T23:54:01.996Z,101283.19
2023-05-09T23:56:30.216Z,101279.38
2023-05-09T23:58:58.560Z,101278.50
